createdAt,value
2023-03-05T00:01:13.982Z,94.60
2023-03-05T00:03:41.022Z,94.40
2023-03-05T00:06:08.609Z,94.60
2023-03-05T00:08:35.487Z,94.90
2023-03-05T00:11:05.178Z,95.00
2023-03-05T00:13:32.768Z,95.30
2023-03-05T00:15:59.595Z,95.60
2023-03-05T00:18:26.548Z,95.70
2023-03-05T00:20:53.293Z,95.90
2023-03-05T00:23:20.223Z,95.70
2023-03-05T00:25:47.109Z,95.70
2023-03-05T00:28:14.280Z,95.90
2023-03-05T00:30:41.196Z,96.10
2023-03-05T00:33:09.688Z,96.40
2023-03-05T00:35:41.941Z,96.60
2023-03-05T00:38:09.018Z,96.90
2023-03-05T00:40:40.955Z,97.50
2023-03-05T00:43:08.266Z,98.10
2023-03-05T00:45:35.305Z,99.20
2023-03-05T00:48:02.495Z,99.90
2023-03-05T00:50:29.314Z,99.90
2023-03-05T00:52:56.437Z,99.90
2023-03-05T00:55:23.260Z,99.90
2023-03-05T00:57:50.118Z,99.90
2023-03-05T01:00:17.217Z,99.90
2023-03-05T01:02:44.294Z,99.90
2023-03-05T01:05:15.614Z,99.90
2023-03-05T01:07:42.434Z,99.90
2023-03-05T01:10:10.551Z,99.80
2023-03-05T01:12:37.434Z,99.50
2023-03-05T01:15:05.354Z,99.30
2023-03-05T01:17:32.455Z,99.10
2023-03-05T01:19:59.241Z,98.90
2023-03-05T01:22:26.240Z,98.60
2023-03-05T01:24:53.065Z,98.50
2023-03-05T01:27:20.117Z,98.50
2023-03-05T01:29:46.864Z,98.70
2023-03-05T01:32:13.859Z,98.50
2023-03-05T01:34:41.858Z,98.50
2023-03-05T01:37:09.117Z,98.70
2023-03-05T01:39:36.430Z,98.80
2023-03-05T01:42:04.402Z,99.00
2023-03-05T01:44:32.315Z,99.00
2023-03-05T01:46:59.349Z,98.90
2023-03-05T01:49:28.291Z,99.00
2023-03-05T01:51:58.407Z,99.10
2023-03-05T01:54:33.684Z,99.10
2023-03-05T01:57:07.344Z,99.20
2023-03-05T01:59:35.685Z,99.20
2023-03-05T02:02:03.977Z,99.20
2023-03-05T02:04:40.921Z,99.30
2023-03-05T02:07:08.687Z,99.70
2023-03-05T02:09:38.710Z,99.90
2023-03-05T02:12:06.238Z,99.90
2023-03-05T02:14:33.941Z,99.90
2023-03-05T02:17:00.810Z,99.90
2023-03-05T02:19:27.911Z,99.90
2023-03-05T02:21:54.912Z,99.90
2023-03-05T02:24:41.950Z,99.90
2023-03-05T02:27:09.275Z,99.90
2023-03-05T02:29:38.792Z,99.90
2023-03-05T02:32:05.887Z,99.90
2023-03-05T02:34:32.690Z,99.90
2023-03-05T02:37:02.526Z,99.90
2023-03-05T02:39:30.420Z,99.90
2023-03-05T02:41:57.703Z,99.90
2023-03-05T02:44:24.537Z,99.90
2023-03-05T02:46:51.507Z,99.90
2023-03-05T02:49:18.501Z,99.90
2023-03-05T02:51:45.863Z,99.90
2023-03-05T02:54:13.103Z,99.90
2023-03-05T02:56:40.339Z,99.90
2023-03-05T02:59:07.149Z,99.90
2023-03-05T03:01:34.826Z,99.90
2023-03-05T03:04:01.755Z,99.90
2023-03-05T03:06:28.502Z,99.90
2023-03-05T03:08:55.449Z,99.90
2023-03-05T03:11:22.253Z,99.90
2023-03-05T03:13:49.205Z,99.90
2023-03-05T03:16:16.580Z,99.90
2023-03-05T03:18:44.333Z,99.90
2023-03-05T03:21:21.056Z,99.90
2023-03-05T03:23:49.178Z,99.90
2023-03-05T03:26:16.691Z,99.90
2023-03-05T03:28:44.037Z,99.90
2023-03-05T03:31:10.975Z,99.90
2023-03-05T03:33:37.946Z,99.90
2023-03-05T03:36:05.417Z,99.90
2023-03-05T03:38:32.573Z,99.90
2023-03-05T03:40:59.328Z,99.90
2023-03-05T03:43:26.233Z,99.90
2023-03-05T03:45:53.108Z,99.90
2023-03-05T03:48:19.969Z,99.90
2023-03-05T03:50:46.739Z,99.90
2023-03-05T03:53:14.298Z,99.90
2023-03-05T03:55:46.576Z,99.90
2023-03-05T03:58:13.740Z,99.90
2023-03-05T04:00:41.515Z,99.90
2023-03-05T04:03:09.174Z,99.90
2023-03-05T04:05:35.982Z,99.90
2023-03-05T04:08:03.510Z,99.90
2023-03-05T04:10:30.335Z,99.90
2023-03-05T04:12:57.204Z,99.90
2023-03-05T04:15:25.013Z,99.90
2023-03-05T04:17:51.936Z,99.90
2023-03-05T04:20:18.867Z,99.90
2023-03-05T04:22:45.646Z,99.90
2023-03-05T04:25:12.503Z,99.90
2023-03-05T04:27:40.402Z,99.90
2023-03-05T04:30:09.312Z,99.90
2023-03-05T04:32:36.206Z,99.90
2023-03-05T04:35:03.263Z,99.90
2023-03-05T04:37:30.098Z,99.90
2023-03-05T04:39:57.036Z,99.90
2023-03-05T04:42:24.149Z,99.90
2023-03-05T04:44:51.557Z,99.90
2023-03-05T04:47:19.581Z,99.90
2023-03-05T04:49:46.371Z,99.90
2023-03-05T04:52:14.319Z,99.90
2023-03-05T04:54:41.252Z,99.90
2023-03-05T04:57:08.313Z,99.90
2023-03-05T04:59:35.154Z,99.90
2023-03-05T05:02:02.570Z,99.90
2023-03-05T05:04:29.824Z,99.90
2023-03-05T05:06:57.617Z,99.90
2023-03-05T05:09:25.916Z,99.90
2023-03-05T05:11:52.986Z,99.90
2023-03-05T05:14:20.217Z,99.90
2023-03-05T05:16:47.152Z,99.90
2023-03-05T05:19:13.989Z,99.90
2023-03-05T05:21:40.938Z,99.90
2023-03-05T05:24:07.872Z,99.90
2023-03-05T05:26:34.901Z,99.90
2023-03-05T05:29:01.731Z,99.90
2023-03-05T05:31:28.684Z,99.90
2023-03-05T05:33:55.535Z,99.90
2023-03-05T05:36:22.812Z,99.90
2023-03-05T05:38:50.137Z,99.90
2023-03-05T05:41:18.780Z,99.90
2023-03-05T05:43:45.730Z,99.90
2023-03-05T05:46:16.231Z,99.90
2023-03-05T05:48:44.129Z,99.90
2023-03-05T05:51:14.887Z,99.90
2023-03-05T05:53:42.827Z,99.90
2023-03-05T05:56:10.546Z,99.90
2023-03-05T05:58:38.828Z,99.90
2023-03-05T06:01:22.685Z,99.90
2023-03-05T06:03:49.847Z,99.90
2023-03-05T06:06:19.011Z,99.90
2023-03-05T06:08:46.929Z,99.90
2023-03-05T06:11:14.379Z,99.90
2023-03-05T06:13:41.702Z,99.90
2023-03-05T06:16:13.040Z,99.90
2023-03-05T06:18:40.007Z,99.90
2023-03-05T06:21:10.718Z,99.90
2023-03-05T06:23:38.032Z,99.90
2023-03-05T06:26:07.125Z,99.90
2023-03-05T06:28:34.943Z,99.90
2023-03-05T06:31:03.883Z,99.90
2023-03-05T06:33:31.514Z,99.90
2023-03-05T06:35:58.365Z,99.90
2023-03-05T06:38:25.889Z,99.90
2023-03-05T06:40:52.889Z,99.90
2023-03-05T06:43:19.927Z,99.90
2023-03-05T06:45:47.216Z,99.90
2023-03-05T06:48:14.053Z,99.90
2023-03-05T06:50:40.866Z,99.90
2023-03-05T06:53:07.699Z,99.90
2023-03-05T06:55:39.648Z,99.90
2023-03-05T06:58:07.637Z,99.90
2023-03-05T07:00:34.569Z,99.90
2023-03-05T07:03:01.385Z,99.90
2023-03-05T07:05:28.217Z,99.90
2023-03-05T07:07:55.058Z,99.90
2023-03-05T07:10:21.826Z,99.90
2023-03-05T07:12:49.054Z,99.90
2023-03-05T07:15:15.873Z,99.90
2023-03-05T07:17:42.665Z,99.90
2023-03-05T07:20:10.236Z,99.90
2023-03-05T07:22:38.263Z,99.90
2023-03-05T07:25:06.001Z,99.90
2023-03-05T07:27:37.592Z,99.90
2023-03-05T07:30:05.401Z,99.90
2023-03-05T07:32:35.467Z,99.90
2023-03-05T07:35:02.601Z,99.90
2023-03-05T07:37:29.414Z,99.90
2023-03-05T07:39:56.248Z,99.90
2023-03-05T07:42:23.077Z,99.90
2023-03-05T07:44:57.002Z,99.90
2023-03-05T07:47:23.926Z,99.90
2023-03-05T07:49:50.857Z,99.90
2023-03-05T07:52:17.986Z,99.90
2023-03-05T07:54:44.902Z,99.90
2023-03-05T07:57:13.400Z,99.90
2023-03-05T07:59:40.373Z,99.90
2023-03-05T08:02:07.566Z,99.90
2023-03-05T08:04:34.382Z,99.90
2023-03-05T08:07:01.253Z,99.90
2023-03-05T08:09:28.965Z,99.90
2023-03-05T08:11:56.096Z,99.90
2023-03-05T08:14:23.036Z,99.90
2023-03-05T08:16:53.170Z,99.90
2023-03-05T08:19:21.216Z,99.90
2023-03-05T08:21:48.105Z,99.90
2023-03-05T08:24:15.094Z,99.90
2023-03-05T08:26:41.904Z,99.90
2023-03-05T08:29:09.881Z,99.90
2023-03-05T08:31:37.201Z,99.90
2023-03-05T08:34:05.023Z,99.90
2023-03-05T08:36:31.893Z,99.90
2023-03-05T08:38:59.687Z,99.90
2023-03-05T08:41:26.855Z,99.90
2023-03-05T08:43:53.714Z,99.90
2023-03-05T08:46:20.584Z,99.90
2023-03-05T08:48:47.397Z,99.90
2023-03-05T08:51:17.318Z,99.90
2023-03-05T08:53:45.802Z,99.90
2023-03-05T08:56:13.423Z,99.90
2023-03-05T08:58:40.319Z,99.90
2023-03-05T09:01:07.384Z,99.90
2023-03-05T09:03:34.345Z,99.90
2023-03-05T09:06:03.524Z,99.90
2023-03-05T09:08:30.637Z,99.90
2023-03-05T09:10:57.876Z,99.90
2023-03-05T09:13:24.948Z,99.90
2023-03-05T09:16:03.733Z,99.90
2023-03-05T09:18:31.519Z,99.90
2023-03-05T09:20:58.404Z,99.90
2023-03-05T09:23:25.300Z,99.90
2023-03-05T09:25:52.250Z,99.90
2023-03-05T09:28:19.133Z,99.90
2023-03-05T09:30:46.079Z,99.90
2023-03-05T09:33:13.021Z,99.90
2023-03-05T09:35:39.778Z,99.90
2023-03-05T09:38:06.885Z,99.90
2023-03-05T09:40:55.631Z,99.90
2023-03-05T09:43:28.779Z,99.90
2023-03-05T09:46:13.466Z,99.90
2023-03-05T09:49:08.234Z,99.90
2023-03-05T09:51:39.295Z,99.90
2023-03-05T09:54:13.756Z,99.90
2023-03-05T09:56:44.661Z,99.90
2023-03-05T09:59:35.883Z,99.90
2023-03-05T10:02:13.038Z,99.90
2023-03-05T10:04:49.832Z,99.90
2023-03-05T10:07:27.310Z,99.90
2023-03-05T10:10:15.829Z,99.90
2023-03-05T10:12:50.807Z,99.90
2023-03-05T10:15:27.074Z,99.90
2023-03-05T10:18:12.615Z,99.90
2023-03-05T10:20:56.250Z,99.90
2023-03-05T10:23:50.677Z,99.90
2023-03-05T10:26:36.615Z,99.90
2023-03-05T10:29:26.286Z,99.90
2023-03-05T10:32:54.520Z,99.90
2023-03-05T10:35:55.120Z,99.90
2023-03-05T10:38:24.944Z,99.90
2023-03-05T10:40:52.797Z,99.90
2023-03-05T10:43:49.195Z,99.90
2023-03-05T10:46:19.271Z,99.90
2023-03-05T10:49:25.136Z,99.90
2023-03-05T10:51:54.130Z,99.90
2023-03-05T10:54:29.668Z,99.90
2023-03-05T10:57:25.835Z,99.90
2023-03-05T10:59:57.492Z,99.90
2023-03-05T11:02:24.906Z,99.90
2023-03-05T11:04:52.740Z,99.90
2023-03-05T11:07:19.510Z,99.90
2023-03-05T11:10:04.350Z,99.90
2023-03-05T11:12:36.108Z,99.90
2023-03-05T11:15:05.945Z,99.90
2023-03-05T11:17:34.327Z,99.90
2023-03-05T11:20:30.126Z,99.90
2023-03-05T11:23:11.941Z,99.90
2023-03-05T11:26:01.523Z,99.90
2023-03-05T11:28:37.807Z,99.90
2023-03-05T11:31:33.977Z,99.90
2023-03-05T11:34:08.373Z,99.90
2023-03-05T11:36:39.306Z,99.90
2023-03-05T11:39:06.168Z,99.90
2023-03-05T11:41:38.824Z,99.90
2023-03-05T11:44:15.287Z,99.90
2023-03-05T11:46:48.513Z,99.90
2023-03-05T11:49:20.932Z,99.90
2023-03-05T11:51:57.773Z,99.90
2023-03-05T11:54:36.478Z,99.90
2023-03-05T11:57:04.339Z,99.90
2023-03-05T11:59:40.253Z,99.90
2023-03-05T12:02:20.417Z,99.90
2023-03-05T12:04:48.638Z,99.90
2023-03-05T12:07:21.870Z,99.90
2023-03-05T12:09:53.090Z,99.90
2023-03-05T12:12:38.777Z,99.90
2023-03-05T12:15:17.634Z,99.90
2023-03-05T12:18:03.161Z,99.90
2023-03-05T12:20:42.205Z,99.90
2023-03-05T12:23:19.171Z,99.90
2023-03-05T12:25:52.281Z,99.90
2023-03-05T12:28:34.521Z,98.20
2023-03-05T12:31:05.864Z,99.10
2023-03-05T12:33:43.582Z,98.70
2023-03-05T12:36:22.780Z,98.40
2023-03-05T12:38:53.431Z,98.30
2023-03-05T12:41:23.064Z,97.50
2023-03-05T12:44:04.896Z,98.10
2023-03-05T12:46:41.605Z,98.90
2023-03-05T12:49:20.455Z,98.70
2023-03-05T12:51:49.838Z,98.70
2023-03-05T12:54:26.817Z,99.40
2023-03-05T12:56:59.258Z,99.60
2023-03-05T13:00:00.374Z,99.90
2023-03-05T13:02:42.487Z,99.50
2023-03-05T13:05:24.283Z,98.80
2023-03-05T13:07:51.774Z,97.90
2023-03-05T13:10:28.272Z,98.60
2023-03-05T13:12:58.487Z,98.70
2023-03-05T13:15:26.554Z,98.80
2023-03-05T13:18:03.368Z,99.10
2023-03-05T13:20:39.949Z,98.80
2023-03-05T13:23:09.910Z,99.40
2023-03-05T13:25:36.777Z,98.00
2023-03-05T13:28:15.328Z,98.20
2023-03-05T13:30:51.715Z,99.10
2023-03-05T13:33:24.667Z,99.20
2023-03-05T13:35:53.884Z,99.30
2023-03-05T13:38:37.222Z,99.50
2023-03-05T13:41:11.958Z,99.60
2023-03-05T13:44:02.323Z,99.90
2023-03-05T13:46:40.380Z,99.90
2023-03-05T13:49:26.850Z,99.60
2023-03-05T13:51:59.953Z,98.80
2023-03-05T13:54:27.992Z,99.10
2023-03-05T13:56:54.889Z,98.90
2023-03-05T13:59:23.896Z,98.00
2023-03-05T14:01:51.444Z,98.60
2023-03-05T14:04:30.643Z,98.70
2023-03-05T14:07:00.559Z,98.10
2023-03-05T14:09:48.797Z,97.90
2023-03-05T14:12:43.517Z,97.70
2023-03-05T14:15:27.458Z,94.40
2023-03-05T14:18:12.033Z,94.40
2023-03-05T14:20:40.637Z,94.90
2023-03-05T14:23:34.530Z,95.00
2023-03-05T14:26:22.869Z,95.00
2023-03-05T14:28:55.728Z,94.60
2023-03-05T14:31:24.145Z,94.80
2023-03-05T14:33:52.225Z,94.90
2023-03-05T14:36:25.174Z,94.90
2023-03-05T14:38:53.354Z,95.40
2023-03-05T14:41:40.968Z,95.30
2023-03-05T14:44:26.552Z,94.70
2023-03-05T14:46:53.464Z,94.30
2023-03-05T14:49:20.316Z,94.20
2023-03-05T14:51:47.688Z,94.60
2023-03-05T14:54:23.535Z,94.70
2023-03-05T14:56:50.737Z,94.80
2023-03-05T14:59:19.204Z,94.90
2023-03-05T15:01:46.169Z,95.10
2023-03-05T15:04:15.472Z,94.90
2023-03-05T15:06:45.295Z,94.20
2023-03-05T15:09:12.677Z,93.90
2023-03-05T15:11:39.432Z,94.10
2023-03-05T15:14:06.266Z,94.30
2023-03-05T15:16:33.188Z,94.30
2023-03-05T15:19:00.077Z,94.10
2023-03-05T15:21:27.059Z,94.10
2023-03-05T15:23:54.088Z,93.80
2023-03-05T15:26:21.693Z,94.10
2023-03-05T15:28:48.507Z,93.50
2023-03-05T15:31:18.311Z,93.20
2023-03-05T15:33:45.267Z,93.00
2023-03-05T15:36:13.524Z,93.60
2023-03-05T15:38:41.602Z,93.60
2023-03-05T15:41:08.606Z,94.00
2023-03-05T15:43:36.605Z,93.80
2023-03-05T15:46:05.839Z,93.80
2023-03-05T15:48:32.635Z,93.90
2023-03-05T15:50:59.487Z,94.30
2023-03-05T15:53:26.399Z,94.50
2023-03-05T15:55:53.277Z,94.80
2023-03-05T15:58:21.059Z,94.60
2023-03-05T16:00:49.009Z,94.70
2023-03-05T16:03:16.179Z,94.70
2023-03-05T16:05:43.291Z,94.50
2023-03-05T16:08:10.366Z,94.70
2023-03-05T16:10:39.549Z,94.70
2023-03-05T16:13:13.385Z,94.80
2023-03-05T16:15:41.829Z,95.00
2023-03-05T16:18:12.737Z,94.80
2023-03-05T16:20:40.059Z,94.50
2023-03-05T16:23:07.059Z,94.50
2023-03-05T16:25:33.992Z,94.60
2023-03-05T16:28:00.894Z,94.80
2023-03-05T16:30:27.824Z,94.70
2023-03-05T16:32:54.628Z,94.20
2023-03-05T16:35:21.758Z,93.90
2023-03-05T16:37:48.590Z,93.80
2023-03-05T16:40:15.874Z,93.90
2023-03-05T16:42:43.066Z,94.00
2023-03-05T16:45:11.109Z,94.10
2023-03-05T16:47:38.361Z,94.20
2023-03-05T16:50:06.809Z,93.90
2023-03-05T16:52:33.821Z,94.00
2023-03-05T16:55:00.842Z,94.10
2023-03-05T16:57:28.962Z,94.30
2023-03-05T16:59:57.209Z,94.50
2023-03-05T17:02:24.247Z,94.20
2023-03-05T17:04:51.124Z,94.10
2023-03-05T17:07:18.249Z,94.30
2023-03-05T17:09:46.288Z,94.50
2023-03-05T17:12:13.077Z,94.50
2023-03-05T17:14:39.971Z,94.60
2023-03-05T17:17:06.949Z,94.70
2023-03-05T17:19:33.822Z,94.90
2023-03-05T17:22:00.650Z,94.80
2023-03-05T17:24:27.612Z,94.90
2023-03-05T17:26:54.381Z,94.80
2023-03-05T17:29:23.039Z,95.00
2023-03-05T17:31:53.162Z,95.00
2023-03-05T17:34:33.257Z,95.00
2023-03-05T17:37:01.238Z,95.00
2023-03-05T17:39:28.096Z,94.90
2023-03-05T17:41:54.923Z,94.90
2023-03-05T17:44:21.788Z,95.00
2023-03-05T17:46:48.672Z,95.00
2023-03-05T17:49:15.448Z,95.00
2023-03-05T17:51:42.310Z,94.90
2023-03-05T17:54:09.155Z,94.70
2023-03-05T17:56:36.111Z,94.90
2023-03-05T17:59:02.950Z,94.40
2023-03-05T18:01:32.893Z,94.30
2023-03-05T18:04:00.274Z,94.70
2023-03-05T18:06:27.747Z,94.10
2023-03-05T18:08:54.514Z,94.10
2023-03-05T18:11:24.597Z,94.20
2023-03-05T18:13:51.439Z,94.40
2023-03-05T18:16:18.465Z,95.00
2023-03-05T18:18:45.596Z,94.80
2023-03-05T18:21:12.597Z,94.80
2023-03-05T18:23:39.518Z,95.10
2023-03-05T18:26:06.475Z,94.70
2023-03-05T18:28:33.290Z,94.60
2023-03-05T18:31:01.004Z,94.80
2023-03-05T18:33:27.868Z,94.50
2023-03-05T18:35:54.815Z,94.40
2023-03-05T18:38:23.701Z,94.10
2023-03-05T18:40:51.561Z,94.20
2023-03-05T18:43:20.525Z,94.10
2023-03-05T18:45:52.684Z,94.20
2023-03-05T18:48:19.598Z,94.40
2023-03-05T18:50:50.001Z,94.40
2023-03-05T18:53:17.187Z,94.30
2023-03-05T18:55:44.914Z,94.40
2023-03-05T18:58:15.612Z,94.40
2023-03-05T19:00:43.858Z,94.50
2023-03-05T19:03:11.623Z,94.50
2023-03-05T19:05:39.501Z,94.50
2023-03-05T19:08:07.817Z,95.10
2023-03-05T19:10:34.718Z,94.60
2023-03-05T19:13:35.394Z,94.50
2023-03-05T19:16:16.868Z,94.50
2023-03-05T19:19:05.353Z,94.60
2023-03-05T19:21:32.287Z,94.50
2023-03-05T19:23:59.179Z,94.50
2023-03-05T19:26:26.093Z,94.40
2023-03-05T19:28:52.870Z,94.40
2023-03-05T19:31:19.832Z,94.30
2023-03-05T19:33:46.660Z,94.40
2023-03-05T19:36:13.679Z,94.50
2023-03-05T19:38:41.001Z,94.70
2023-03-05T19:41:10.314Z,95.10
2023-03-05T19:43:37.834Z,94.70
2023-03-05T19:46:06.997Z,94.80
2023-03-05T19:48:34.942Z,94.90
2023-03-05T19:51:03.450Z,95.00
2023-03-05T19:53:30.445Z,95.10
2023-03-05T19:55:57.335Z,94.90
2023-03-05T19:58:26.589Z,94.90
2023-03-05T20:00:53.466Z,95.00
2023-03-05T20:03:20.566Z,95.00
2023-03-05T20:05:47.541Z,95.00
2023-03-05T20:08:14.310Z,95.00
2023-03-05T20:10:41.202Z,95.10
2023-03-05T20:13:07.952Z,95.10
2023-03-05T20:15:34.770Z,95.10
2023-03-05T20:18:01.594Z,95.10
2023-03-05T20:20:30.892Z,95.10
2023-03-05T20:22:57.695Z,95.20
2023-03-05T20:25:24.895Z,95.20
2023-03-05T20:27:52.443Z,95.30
2023-03-05T20:30:19.462Z,95.30
2023-03-05T20:32:46.510Z,95.50
2023-03-05T20:35:15.886Z,95.60
2023-03-05T20:37:50.115Z,95.80
2023-03-05T20:40:17.361Z,96.10
2023-03-05T20:42:44.507Z,96.10
2023-03-05T20:45:11.954Z,96.20
2023-03-05T20:47:44.623Z,96.20
2023-03-05T20:50:12.938Z,96.20
2023-03-05T20:52:40.650Z,96.10
2023-03-05T20:55:08.613Z,96.20
2023-03-05T20:57:35.499Z,96.10
2023-03-05T21:00:03.534Z,96.10
2023-03-05T21:02:30.364Z,96.00
2023-03-05T21:04:57.318Z,96.10
2023-03-05T21:07:26.159Z,96.00
2023-03-05T21:09:53.285Z,96.00
2023-03-05T21:12:20.090Z,96.00
2023-03-05T21:14:46.946Z,96.00
2023-03-05T21:17:13.713Z,95.90
2023-03-05T21:19:40.698Z,95.90
2023-03-05T21:22:07.600Z,95.90
2023-03-05T21:24:49.763Z,95.80
2023-03-05T21:27:16.785Z,95.60
2023-03-05T21:29:43.724Z,95.50
2023-03-05T21:32:38.507Z,95.60
2023-03-05T21:35:05.820Z,95.40
2023-03-05T21:37:32.706Z,95.30
2023-03-05T21:39:59.553Z,95.10
2023-03-05T21:42:26.433Z,95.00
2023-03-05T21:44:53.474Z,94.90
2023-03-05T21:47:20.301Z,94.80
2023-03-05T21:49:47.083Z,94.90
2023-03-05T21:52:14.068Z,94.90
2023-03-05T21:54:42.128Z,94.80
2023-03-05T21:57:10.947Z,94.80
2023-03-05T21:59:42.408Z,94.80
2023-03-05T22:02:13.993Z,94.90
2023-03-05T22:04:41.843Z,94.90
2023-03-05T22:07:08.904Z,95.00
2023-03-05T22:09:36.024Z,95.10
2023-03-05T22:12:05.067Z,95.20
2023-03-05T22:14:31.989Z,95.30
2023-03-05T22:17:02.176Z,95.30
2023-03-05T22:19:29.879Z,95.30
2023-03-05T22:21:57.671Z,95.40
2023-03-05T22:24:27.283Z,95.40
2023-03-05T22:26:54.228Z,95.30
2023-03-05T22:29:23.138Z,95.30
2023-03-05T22:31:49.946Z,95.20
2023-03-05T22:34:16.814Z,95.20
2023-03-05T22:36:43.605Z,95.30
2023-03-05T22:39:10.530Z,95.30
2023-03-05T22:41:40.198Z,95.30
2023-03-05T22:44:07.428Z,95.40
2023-03-05T22:46:34.333Z,95.50
2023-03-05T22:49:01.284Z,95.60
2023-03-05T22:51:28.159Z,95.50
2023-03-05T22:53:54.997Z,95.60
2023-03-05T22:56:21.919Z,95.70
2023-03-05T22:58:48.920Z,95.70
2023-03-05T23:01:18.737Z,95.60
2023-03-05T23:03:53.168Z,95.70
2023-03-05T23:06:20.217Z,95.70
2023-03-05T23:08:47.103Z,95.70
2023-03-05T23:11:14.074Z,95.60
2023-03-05T23:13:41.508Z,95.60
2023-03-05T23:16:09.688Z,95.60
2023-03-05T23:18:37.022Z,95.60
2023-03-05T23:21:04.332Z,95.70
2023-03-05T23:23:31.170Z,95.80
2023-03-05T23:25:58.226Z,95.70
2023-03-05T23:28:25.078Z,95.60
2023-03-05T23:30:52.051Z,95.80
2023-03-05T23:33:21.044Z,95.80
2023-03-05T23:35:57.232Z,95.90
2023-03-05T23:38:25.623Z,96.00
2023-03-05T23:40:55.208Z,96.10
2023-03-05T23:43:24.763Z,96.20
2023-03-05T23:45:56.243Z,96.30
2023-03-05T23:48:25.083Z,96.40
2023-03-05T23:50:52.114Z,96.60
2023-03-05T23:53:31.204Z,96.70
2023-03-05T23:55:58.329Z,96.80
2023-03-05T23:58:25.344Z,96.90
